createdAt,value
2022-10-13T00:02:39.003Z,11.2
2022-10-13T00:17:39.007Z,11.4
2022-10-13T00:32:39.006Z,11.4
2022-10-13T00:47:39.002Z,11.4
2022-10-13T01:02:39.002Z,11.4
2022-10-13T01:17:39.002Z,11.4
2022-10-13T01:32:39.002Z,11.4
2022-10-13T01:47:39.002Z,11.5
2022-10-13T02:02:39.003Z,11.8
2022-10-13T02:17:38.999Z,11.6
2022-10-13T02:32:39.005Z,11.6
2022-10-13T02:47:39.002Z,11.6
2022-10-13T03:02:39.004Z,11.6
2022-10-13T03:17:39.010Z,11.6
2022-10-13T03:32:39.002Z,11.6
2022-10-13T03:47:39.002Z,11.4
2022-10-13T04:02:39.000Z,11.4
2022-10-13T04:17:39.002Z,11.3
2022-10-13T04:32:39.004Z,11.4
2022-10-13T04:47:39.002Z,11.6
2022-10-13T05:02:39.001Z,11.4
2022-10-13T05:17:39.005Z,11.4
2022-10-13T05:32:39.000Z,11.6
2022-10-13T05:47:39.007Z,11.6
2022-10-13T06:02:39.006Z,11.6
2022-10-13T06:17:39.005Z,11.8
2022-10-13T06:32:38.998Z,11.8
2022-10-13T06:47:39.010Z,11.9
2022-10-13T07:02:39.003Z,11.9
2022-10-13T07:17:38.996Z,12.1
2022-10-13T07:32:39.016Z,12.4
2022-10-13T07:47:39.004Z,13
2022-10-13T08:02:39.004Z,12.8
2022-10-13T08:17:39.005Z,13.1
2022-10-13T08:32:39.008Z,13.4
2022-10-13T08:47:39.008Z,13.9
2022-10-13T09:02:39.000Z,13.9
2022-10-13T09:17:39.006Z,13.8
2022-10-13T09:32:39.005Z,13.8
2022-10-13T09:47:39.002Z,14
2022-10-13T10:02:39.012Z,14.1
2022-10-13T10:17:39.032Z,14
2022-10-13T10:32:39.021Z,13.8
2022-10-13T10:47:39.005Z,13.8
2022-10-13T11:02:39.001Z,13.7
2022-10-13T11:17:38.997Z,14.1
2022-10-13T11:32:39.008Z,14.9
2022-10-13T11:47:39.016Z,15.2
2022-10-13T12:02:39.045Z,15.2
2022-10-13T12:17:39.051Z,15.1
2022-10-13T12:32:39.014Z,15
2022-10-13T12:47:39.110Z,15
2022-10-13T13:02:39.010Z,15.1
2022-10-13T13:17:57.007Z,15.2
2022-10-13T13:32:39.011Z,15.4
2022-10-13T13:47:39.020Z,15.4
2022-10-13T14:02:39.024Z,15.2
2022-10-13T14:17:39.006Z,15.2
2022-10-13T14:32:39.003Z,15.1
2022-10-13T14:47:39.011Z,14.4
2022-10-13T15:02:39.009Z,14.4
2022-10-13T15:17:39.012Z,13.7
2022-10-13T15:32:39.003Z,13
2022-10-13T15:47:39.017Z,12.9
2022-10-13T16:02:39.001Z,13
2022-10-13T16:17:39.007Z,13.1
2022-10-13T16:32:39.071Z,12.9
2022-10-13T16:47:39.011Z,12.9
2022-10-13T17:02:39.021Z,12.8
2022-10-13T17:17:39.005Z,12.8
2022-10-13T17:32:39.016Z,12.6
2022-10-13T17:47:39.007Z,12.2
2022-10-13T18:02:39.005Z,11.9
2022-10-13T18:17:39.011Z,11.9
2022-10-13T18:32:39.008Z,11.9
2022-10-13T18:47:39.012Z,11.9
2022-10-13T19:02:39.018Z,11.9
2022-10-13T19:17:39.001Z,11.9
2022-10-13T19:32:39.001Z,11.9
2022-10-13T19:47:39.006Z,12
2022-10-13T20:02:39.009Z,12
2022-10-13T20:17:39.001Z,12.1
2022-10-13T20:32:39.004Z,12.1
2022-10-13T20:47:39.003Z,12.2
2022-10-13T21:02:39.000Z,12.3
2022-10-13T21:17:42.295Z,12.4
2022-10-13T21:32:39.008Z,12.4
2022-10-13T21:47:38.997Z,12.4
2022-10-13T22:02:39.005Z,12.2
2022-10-13T22:17:39.007Z,12.1
2022-10-13T22:32:39.006Z,12.2
2022-10-13T22:47:39.001Z,12.2
2022-10-13T23:02:39.007Z,12.2
2022-10-13T23:17:39.001Z,12.3
2022-10-13T23:32:39.009Z,12.4
2022-10-13T23:47:39.001Z,12.4
